LFMK/CCF METAR and TAF weather

Enter ICAO airport designator
Station Type Date Time Source
LFMK METAR 2021/03/06 02:00 UTC NOAA

LFMK 060200Z AUTO 29006KT 9999 BKN084 OVC110 09/06 Q1021


Station Type Date Time Source
LFMK Decoded METAR 2021/03/06 02:00 UTC NOAA

Carcassonne, France (LFMK) 43-13N 002-19E 130M
Mar 05, 2021 - 09:00 PM EST / 2021.03.06 0200 UTC
Wind: from the WNW (290 degrees) at 7 MPH (6 KT):0
Visibility: greater than 7 mile(s):0
Sky conditions: overcast
Temperature: 48 F (9 C)
Dew Point: 42 F (6 C)
Relative Humidity: 81%
Pressure (altimeter): 30.15 in. Hg (1021 hPa)
ob: LFMK 060200Z AUTO 29006KT 9999 BKN084 OVC110 09/06 Q1021
cycle: 2

Station Type Date Time Source
LFMK TAF 2021/03/05 18:06 UTC NOAA

TAF LFMK 051800Z 0518/0615 CNL

Example: see airport list